Time;durP1;ratioP1;P1;durP2;ratioP2;P2;SDS_P1;SDS_P2;PMS_P1;PMS_P2;Temp;Humidity;BMP_temperature;BMP_pressure;BME280_temperature;BME280_humidity;BME280_pressure;Samples;Min_cycle;Max_cycle;Signal;HPM_P1;HPM_P2
2022/01/14 00:01:10;;;;;;;33.40;27.90;;;;;;;4.42;76.53;101509.30;108584;1279;23611;-83
2022/01/14 00:03:47;;;;;;;28.50;24.10;;;;;;;4.46;76.44;101512.22;108526;1282;22106;-84
2022/01/14 00:06:33;;;;;;;32.90;25.50;;;;;;;4.47;76.40;101512.19;108341;1282;22075;-86
2022/01/14 00:09:35;;;;;;;31.50;25.20;;;;;;;4.48;76.27;101511.78;108241;1282;22007;-82
2022/01/14 00:12:17;;;;;;;29.30;24.00;;;;;;;4.45;76.10;101510.70;108139;1282;23728;-83
2022/01/14 00:15:28;;;;;;;31.30;25.40;;;;;;;4.45;76.25;101510.55;107807;1288;22002;-84
2022/01/14 00:18:33;;;;;;;28.10;23.20;;;;;;;4.43;76.19;101516.80;107803;1288;23723;-84
2022/01/14 00:21:09;;;;;;;29.30;22.40;;;;;;;4.42;76.33;101513.90;107446;1291;22029;-82
2022/01/14 00:23:51;;;;;;;30.30;22.30;;;;;;;4.42;76.26;101520.51;107434;1291;22005;-82
2022/01/14 00:33:06;;;;;;;30.80;24.30;;;;;;;4.48;76.32;101511.92;107714;1279;21998;-84
2022/01/14 00:35:42;;;;;;;26.20;22.80;;;;;;;4.49;76.25;101507.84;108470;1278;23844;-83
2022/01/14 00:38:27;;;;;;;26.90;23.20;;;;;;;4.50;76.28;101507.92;108550;1278;24213;-81
2022/01/14 00:41:05;;;;;;;30.50;24.60;;;;;;;4.53;76.35;101504.80;108242;1279;22142;-82
2022/01/14 00:43:44;;;;;;;26.10;22.40;;;;;;;4.53;76.16;101505.17;108522;1279;23729;-81
2022/01/14 00:46:21;;;;;;;28.20;22.10;;;;;;;4.53;76.14;101508.30;108630;1276;22029;-82
2022/01/14 00:48:57;;;;;;;26.60;19.80;;;;;;;4.53;76.14;101512.45;108945;1270;21992;-82
2022/01/14 00:51:30;;;;;;;25.40;21.50;;;;;;;4.54;76.18;101520.39;108906;1270;24398;-82
2022/01/14 00:54:06;;;;;;;27.00;21.40;;;;;;;4.55;76.10;101519.67;109001;1270;23825;-82
2022/01/14 00:59:42;;;;;;;31.40;22.80;;;;;;;4.55;75.97;101520.90;109109;1270;21988;-84
2022/01/14 01:02:19;;;;;;;38.80;21.60;;;;;;;4.55;75.87;101524.92;108982;1270;23004;-83
2022/01/14 01:04:54;;;;;;;31.00;22.80;;;;;;;4.54;75.89;101525.61;108857;1270;23629;-82
2022/01/14 01:07:34;;;;;;;27.30;22.10;;;;;;;4.56;75.90;101520.45;108997;1270;23696;-82
2022/01/14 01:10:13;;;;;;;29.20;22.50;;;;;;;4.56;75.87;101520.67;108398;1278;21999;-83
2022/01/14 01:12:53;;;;;;;27.50;23.40;;;;;;;4.57;75.79;101510.83;108398;1276;21985;-82
2022/01/14 01:15:28;;;;;;;30.10;23.90;;;;;;;4.57;75.64;101513.96;108392;1277;22040;-82
2022/01/14 01:18:06;;;;;;;25.40;21.60;;;;;;;4.56;75.70;101512.83;108164;1283;22420;-82
2022/01/14 01:20:42;;;;;;;31.30;22.00;;;;;;;4.55;75.77;101509.55;108137;1284;22065;-80
2022/01/14 01:23:27;;;;;;;27.50;22.40;;;;;;;4.55;75.70;101510.24;108106;1284;23087;-79
2022/01/14 01:26:14;;;;;;;26.40;22.40;;;;;;;4.56;75.75;101505.67;108137;1283;22053;-81
2022/01/14 01:29:02;;;;;;;29.10;23.60;;;;;;;4.56;75.62;101505.14;108160;1281;22049;-80
2022/01/14 01:31:45;;;;;;;27.00;22.80;;;;;;;4.54;75.66;101501.59;108415;1278;23018;-81
2022/01/14 01:34:27;;;;;;;32.10;24.10;;;;;;;4.54;75.55;101500.70;108339;1279;22032;-83
2022/01/14 01:37:14;;;;;;;33.90;24.20;;;;;;;4.54;75.57;101496.90;108652;1275;22140;-81
2022/01/14 01:39:48;;;;;;;33.20;24.50;;;;;;;4.54;75.60;101495.31;108573;1276;21993;-81
2022/01/14 01:42:26;;;;;;;32.30;25.60;;;;;;;4.54;75.63;101492.34;108308;1280;22776;-82
2022/01/14 01:45:09;;;;;;;32.90;24.60;;;;;;;4.55;75.55;101490.52;108326;1281;24359;-82
2022/01/14 01:47:39;;;;;;;28.80;23.50;;;;;;;4.55;75.55;101490.69;108306;1280;22004;-83
2022/01/14 01:50:20;;;;;;;29.90;23.50;;;;;;;4.55;75.62;101489.51;108413;1281;22001;-82
2022/01/14 01:52:55;;;;;;;29.20;25.20;;;;;;;4.55;75.66;101479.58;108349;1276;23794;-82
2022/01/14 01:55:36;;;;;;;33.00;25.10;;;;;;;4.53;75.62;101474.80;108486;1277;21999;-85
2022/01/14 01:58:13;;;;;;;33.00;26.10;;;;;;;4.51;75.65;101473.89;108569;1277;22007;-82
2022/01/14 02:00:48;;;;;;;31.40;25.30;;;;;;;4.49;75.61;101466.83;108471;1275;23096;-82
2022/01/14 02:03:27;;;;;;;30.50;25.60;;;;;;;4.48;75.55;101461.13;108350;1278;22018;-82
2022/01/14 02:06:05;;;;;;;34.20;25.00;;;;;;;4.45;75.52;101455.92;108153;1284;23073;-82
2022/01/14 02:08:44;;;;;;;30.30;24.10;;;;;;;4.44;75.56;101452.33;107949;1284;23127;-83
2022/01/14 02:11:17;;;;;;;28.00;24.60;;;;;;;4.45;75.65;101448.13;108095;1284;22010;-82
2022/01/14 02:13:58;;;;;;;32.60;24.00;;;;;;;4.44;75.56;101443.27;108020;1284;22009;-82
2022/01/14 02:23:17;;;;;;;34.20;25.40;;;;;;;4.38;75.78;101414.02;108677;1273;21999;-82
2022/01/14 02:25:51;;;;;;;32.20;25.60;;;;;;;4.37;75.80;101413.93;109030;1270;22004;-82
2022/01/14 02:28:25;;;;;;;27.90;24.40;;;;;;;4.39;75.79;101414.11;108865;1272;21990;-81
2022/01/14 02:31:03;;;;;;;27.40;24.20;;;;;;;4.43;75.92;101414.07;109098;1270;22000;-84
2022/01/14 02:33:46;;;;;;;30.60;23.80;;;;;;;4.45;75.79;101410.44;108888;1270;21994;-83
2022/01/14 02:36:19;;;;;;;29.30;25.00;;;;;;;4.47;75.91;101410.80;109004;1270;22496;-83
2022/01/14 02:38:50;;;;;;;29.30;23.30;;;;;;;4.50;75.83;101402.05;108849;1270;23630;-82
2022/01/14 02:41:40;;;;;;;27.90;24.60;;;;;;;4.49;75.77;101397.04;108513;1276;22472;-83
2022/01/14 02:44:25;;;;;;;28.30;24.80;;;;;;;4.49;75.77;101399.02;108748;1276;24413;-84
2022/01/14 02:47:07;;;;;;;26.10;22.60;;;;;;;4.49;75.81;101402.30;108733;1276;24075;-84
2022/01/14 02:49:49;;;;;;;32.00;24.70;;;;;;;4.52;75.85;101398.63;108452;1279;22393;-83
2022/01/14 02:52:54;;;;;;;28.50;24.70;;;;;;;4.54;75.76;101391.69;108421;1279;22655;-83
2022/01/14 02:55:43;;;;;;;;;;;;;;;4.53;75.64;101381.28;108291;1282;22002;-83
2022/01/14 02:58:21;;;;;;;31.80;26.00;;;;;;;4.44;75.75;101374.73;108328;1280;22025;-82
2022/01/14 03:01:09;;;;;;;27.50;23.20;;;;;;;4.43;75.85;101370.27;108297;1282;22012;-82
2022/01/14 03:03:45;;;;;;;26.60;23.10;;;;;;;4.44;75.70;101372.46;108207;1282;22885;-83
2022/01/14 03:06:21;;;;;;;29.40;23.90;;;;;;;4.45;75.72;101369.09;108584;1276;22013;-83
2022/01/14 03:09:04;;;;;;;29.20;23.20;;;;;;;4.45;75.59;101364.70;108888;1270;22128;-84
2022/01/14 03:11:49;;;;;;;30.60;23.70;;;;;;;4.45;75.72;101363.31;108848;1270;22078;-82
2022/01/14 03:14:44;;;;;;;29.80;24.30;;;;;;;4.44;75.69;101355.52;108736;1275;22088;-81
2022/01/14 03:17:20;;;;;;;33.30;25.20;;;;;;;4.44;75.58;101353.94;108746;1276;22003;-80
2022/01/14 03:19:50;;;;;;;28.90;24.50;;;;;;;4.44;75.62;101346.27;108674;1276;22470;-80
2022/01/14 03:22:27;;;;;;;30.00;25.00;;;;;;;4.47;75.59;101346.45;108678;1276;24377;-80
2022/01/14 03:27:58;;;;;;;27.80;24.50;;;;;;;4.46;75.46;101343.02;108719;1276;22188;-83
2022/01/14 03:30:32;;;;;;;29.60;24.70;;;;;;;4.44;75.34;101337.91;108485;1276;22116;-81
2022/01/14 03:33:02;;;;;;;29.40;24.80;;;;;;;4.44;75.38;101338.79;108267;1282;22424;-82
2022/01/14 03:35:37;;;;;;;28.00;23.40;;;;;;;4.44;75.45;101332.14;108314;1282;22817;-81
2022/01/14 03:38:10;;;;;;;26.10;22.40;;;;;;;4.45;75.46;101339.44;108126;1285;22026;-82
2022/01/14 03:45:11;;;;;;;29.40;24.60;;;;;;;4.43;75.45;101338.48;109520;1269;22005;-84
2022/01/14 03:47:54;;;;;;;27.50;24.40;;;;;;;4.42;75.45;101330.59;109052;1270;21991;-83
2022/01/14 03:50:27;;;;;;;27.30;22.30;;;;;;;4.42;75.50;101329.15;108977;1272;23112;-84
2022/01/14 03:53:00;;;;;;;29.10;23.80;;;;;;;4.43;75.50;101326.45;108875;1273;22006;-85
2022/01/14 03:55:34;;;;;;;29.20;23.50;;;;;;;4.44;75.47;101318.55;108878;1273;22415;-84
2022/01/14 03:58:20;;;;;;;26.50;23.70;;;;;;;4.45;75.38;101311.14;108688;1276;22021;-84
2022/01/14 04:01:08;;;;;;;28.20;23.40;;;;;;;4.47;75.59;101296.72;108478;1276;22400;-85
2022/01/14 04:03:50;;;;;;;30.70;24.90;;;;;;;4.47;75.46;101298.98;108837;1273;22002;-85
2022/01/14 04:06:31;;;;;;;32.30;25.10;;;;;;;4.46;75.52;101296.41;108879;1279;22084;-85
2022/01/14 04:09:07;;;;;;;34.40;25.00;;;;;;;4.46;75.46;101302.01;108447;1279;22805;-82
2022/01/14 04:11:43;;;;;;;26.10;23.30;;;;;;;4.47;75.44;101300.94;108021;1282;23757;-83
2022/01/14 04:16:58;;;;;;;26.60;22.80;;;;;;;4.46;75.50;101295.54;108338;1279;23723;-82
2022/01/14 04:19:30;;;;;;;29.90;24.60;;;;;;;4.46;75.43;101291.38;108280;1282;23703;-84
2022/01/14 04:22:03;;;;;;;28.00;24.40;;;;;;;4.44;75.48;101295.35;108439;1277;22032;-83
2022/01/14 04:24:46;;;;;;;28.00;25.10;;;;;;;4.44;75.59;101297.63;108704;1276;23049;-83
2022/01/14 04:28:11;;;;;;;28.50;24.10;;;;;;;4.45;75.61;101303.52;109083;1276;21999;-85
2022/01/14 04:35:41;;;;;;;28.80;23.20;;;;;;;4.44;75.71;101314.23;109301;1276;23745;-87
2022/01/14 04:39:14;;;;;;;29.80;24.00;;;;;;;4.44;75.83;101310.86;109707;1269;22263;-80
2022/01/14 04:42:01;;;;;;;25.30;22.60;;;;;;;4.47;75.94;101312.39;109156;1270;23070;-82
2022/01/14 04:44:42;;;;;;;32.90;25.00;;;;;;;4.52;75.94;101315.75;108957;1270;22001;-84
2022/01/14 04:47:44;;;;;;;27.90;24.20;;;;;;;4.53;75.74;101320.93;109046;1270;22044;-83
2022/01/14 04:50:23;;;;;;;29.70;23.80;;;;;;;4.53;75.81;101315.31;108986;1270;22280;-83
2022/01/14 04:52:56;;;;;;;30.20;24.10;;;;;;;4.53;75.80;101320.93;109022;1270;21984;-83
2022/01/14 04:55:36;;;;;;;34.70;25.30;;;;;;;4.53;75.76;101323.36;108986;1269;23597;-82
2022/01/14 04:58:16;;;;;;;33.30;25.00;;;;;;;4.53;75.71;101325.29;108917;1273;23069;-86
2022/01/14 05:00:56;;;;;;;27.80;22.00;;;;;;;4.52;75.70;101319.92;108703;1276;22108;-82
2022/01/14 05:03:35;;;;;;;33.10;24.40;;;;;;;4.51;75.75;101320.01;108608;1276;23100;-83
2022/01/14 05:06:16;;;;;;;28.50;21.50;;;;;;;4.51;75.82;101313.20;108423;1279;23117;-84
2022/01/14 05:08:57;;;;;;;35.70;26.20;;;;;;;4.52;75.94;101312.77;108308;1282;22002;-84
2022/01/14 05:11:41;;;;;;;28.00;23.50;;;;;;;4.50;75.93;101304.73;108333;1279;23151;-83
2022/01/14 05:14:26;;;;;;;32.30;23.90;;;;;;;4.45;75.88;101288.47;108305;1279;23637;-83
2022/01/14 05:17:15;;;;;;;30.70;23.50;;;;;;;4.39;75.98;101278.09;108208;1283;22994;-84
2022/01/14 05:20:10;;;;;;;31.70;23.40;;;;;;;4.32;76.06;101273.15;108282;1279;23706;-84
2022/01/14 05:22:49;;;;;;;31.90;26.10;;;;;;;4.30;76.27;101270.04;108684;1276;22021;-85
2022/01/14 05:28:54;;;;;;;29.90;24.20;;;;;;;4.23;76.53;101264.83;109524;1267;21995;-82
2022/01/14 05:31:51;;;;;;;27.80;24.80;;;;;;;4.21;76.70;101266.94;109195;1268;21955;-81
2022/01/14 05:34:45;;;;;;;36.00;27.20;;;;;;;4.21;76.77;101268.50;109299;1267;22008;-83
2022/01/14 05:37:35;;;;;;;37.50;25.80;;;;;;;4.20;76.85;101258.32;109362;1266;22298;-84
2022/01/14 05:40:37;;;;;;;28.50;23.80;;;;;;;4.17;77.05;101253.77;109770;1266;22748;-89
2022/01/14 05:54:43;;;;;;;30.20;23.80;;;;;;;4.06;77.62;101258.92;110113;1265;21983;-87
2022/01/14 05:58:02;;;;;;;31.30;25.10;;;;;;;4.06;77.71;101257.52;109336;1270;22090;-85
2022/01/14 06:04:51;;;;;;;30.60;26.40;;;;;;;4.09;77.80;101241.96;110751;1260;21993;-85
2022/01/14 06:08:21;;;;;;;29.10;24.40;;;;;;;4.14;78.06;101232.23;110259;1266;22002;-83
2022/01/14 06:12:15;;;;;;;30.00;25.20;;;;;;;4.16;78.23;101227.19;109853;1267;21986;-85
2022/01/14 06:15:16;;;;;;;30.80;26.20;;;;;;;4.20;78.17;101223.41;110111;1270;22020;-85
2022/01/14 06:27:57;;;;;;;;;;;;;;;;;;;;;
2022/01/14 06:35:15;;;;;;;33.90;26.90;;;;;;;4.00;78.26;101200.93;110621;1267;22001;-84
2022/01/14 06:38:27;;;;;;;29.60;24.30;;;;;;;4.01;78.41;101202.11;110686;1269;21909;-83
2022/01/14 06:41:32;;;;;;;32.00;26.00;;;;;;;4.09;79.12;101205.86;110265;1272;21956;-87
2022/01/14 06:48:16;;;;;;;29.50;26.30;;;;;;;4.31;78.85;101173.70;110844;1270;22210;-84
2022/01/14 06:51:12;;;;;;;31.50;26.40;;;;;;;4.40;79.15;101165.00;110640;1267;21903;-83
2022/01/14 06:53:56;;;;;;;31.10;26.20;;;;;;;4.52;78.96;101167.14;110674;1267;22205;-83
2022/01/14 06:57:28;;;;;;;30.40;26.50;;;;;;;4.55;78.62;101167.23;110214;1273;21976;-85
2022/01/14 07:00:30;;;;;;;29.00;25.80;;;;;;;4.54;78.18;101161.23;110198;1273;22375;-85
2022/01/14 07:03:20;;;;;;;26.60;23.70;;;;;;;4.60;78.48;101161.85;110185;1273;21927;-85
2022/01/14 07:06:49;;;;;;;27.30;24.40;;;;;;;4.59;78.23;101160.52;110230;1273;21825;-85
2022/01/14 07:09:34;;;;;;;;;;;;;;;;;;;;;
2022/01/14 07:12:14;;;;;;;29.50;23.60;;;;;;;4.68;78.37;101140.70;110125;1273;22201;-80
2022/01/14 07:15:08;;;;;;;26.40;23.20;;;;;;;4.68;77.98;101132.13;110381;1267;21895;-80
2022/01/14 07:18:02;;;;;;;28.20;25.00;;;;;;;4.65;77.64;101131.67;110520;1267;21927;-81
2022/01/14 07:21:34;;;;;;;;;;;;;;;;;;;;;
2022/01/14 07:29:13;;;;;;;36.10;24.70;;;;;;;4.47;77.89;101121.80;108228;1298;21913;-82
2022/01/14 07:31:58;;;;;;;36.10;24.10;;;;;;;4.48;78.02;101118.40;107860;1298;21884;-83
2022/01/14 07:35:16;;;;;;;29.20;23.80;;;;;;;4.49;78.03;101120.73;108023;1299;22289;-82
2022/01/14 07:37:47;;;;;;;25.40;22.10;;;;;;;4.50;77.93;101123.14;107795;1296;21893;-81
2022/01/14 07:40:21;;;;;;;27.50;24.50;;;;;;;4.47;77.83;101124.06;108278;1295;21934;-80
2022/01/14 07:42:51;;;;;;;28.20;25.00;;;;;;;4.43;77.88;101123.43;108420;1295;21876;-81
2022/01/14 07:45:20;;;;;;;25.90;23.00;;;;;;;4.46;77.98;101134.20;108394;1294;21840;-81
2022/01/14 07:48:13;;;;;;;24.90;22.40;;;;;;;4.64;77.97;101143.61;108113;1282;545340;-80
2022/01/14 07:50:59;;;;;;;25.20;22.50;;;;;;;4.63;78.01;101145.42;108912;1271;21985;-81
2022/01/14 07:53:42;;;;;;;29.40;26.20;;;;;;;4.63;78.09;101155.16;108867;1270;21981;-81
2022/01/14 07:56:23;;;;;;;31.60;27.20;;;;;;;4.60;78.01;101160.05;110271;1258;23693;-80
2022/01/14 07:59:04;;;;;;;35.20;25.80;;;;;;;4.60;77.97;101162.73;110277;1260;21978;-80
2022/01/14 08:01:39;;;;;;;34.50;28.70;;;;;;;4.59;78.01;101156.13;105075;1264;6084629;-82
2022/01/14 08:04:19;;;;;;;27.70;24.10;;;;;;;4.58;78.05;101156.90;109448;1267;23646;-80
2022/01/14 08:10:16;;;;;;;28.70;25.30;;;;;;;4.53;78.19;101155.73;110088;1261;21981;-82
2022/01/14 08:12:52;;;;;;;28.80;23.50;;;;;;;4.49;78.13;101154.06;110420;1261;22262;-80
2022/01/14 08:15:35;;;;;;;28.00;24.50;;;;;;;4.49;78.23;101157.08;110420;1261;22047;-81
2022/01/14 08:18:44;;;;;;;29.00;24.70;;;;;;;4.49;78.22;101157.53;109627;1264;22286;-80
2022/01/14 08:21:28;;;;;;;28.80;25.60;;;;;;;4.50;78.30;101163.10;110121;1263;21980;-82
2022/01/14 08:24:03;;;;;;;26.20;23.30;;;;;;;4.51;78.43;101160.59;109353;1267;22064;-81
2022/01/14 08:26:35;;;;;;;28.30;25.20;;;;;;;4.54;78.41;101160.53;108837;1273;22000;-80
2022/01/14 08:29:36;;;;;;;;;;;;;;;;;;;;;
2022/01/14 08:32:15;;;;;;;28.50;25.10;;;;;;;4.59;78.61;101161.02;109002;1270;24444;-80
2022/01/14 08:35:14;;;;;;;24.60;22.10;;;;;;;4.59;78.53;101161.21;109079;1270;22004;-80
2022/01/14 08:38:07;;;;;;;28.70;25.60;;;;;;;4.58;78.47;101163.19;109152;1269;21988;-81
2022/01/14 08:40:41;;;;;;;32.20;28.00;;;;;;;4.60;78.46;101165.54;108929;1273;22037;-80
2022/01/14 08:43:32;;;;;;;30.40;26.60;;;;;;;4.62;78.59;101170.94;109075;1273;23072;-80
2022/01/14 08:46:28;;;;;;;31.70;27.60;;;;;;;4.63;78.44;101167.38;109238;1270;22566;-81
2022/01/14 08:49:06;;;;;;;29.30;25.70;;;;;;;4.63;78.59;101169.09;109468;1266;22447;-80
2022/01/14 08:51:49;;;;;;;31.20;26.90;;;;;;;4.66;78.82;101159.80;110117;1261;21987;-79
2022/01/14 08:54:35;;;;;;;32.30;25.90;;;;;;;4.69;78.70;101152.98;110146;1262;24550;-80
2022/01/14 08:57:32;;;;;;;33.30;25.50;;;;;;;4.70;78.63;101148.16;110067;1261;21939;-80
2022/01/14 09:00:07;;;;;;;29.10;25.20;;;;;;;4.71;78.70;101157.20;110545;1254;21931;-80
2022/01/14 09:02:39;;;;;;;29.80;26.20;;;;;;;4.72;78.64;101160.11;109873;1263;21998;-80
2022/01/14 09:05:24;;;;;;;28.10;25.10;;;;;;;4.73;78.51;101154.63;109886;1261;21982;-79
2022/01/14 09:08:07;;;;;;;30.70;27.30;;;;;;;4.74;78.56;101148.98;110009;1263;22248;-79
2022/01/14 09:10:46;;;;;;;27.70;24.80;;;;;;;4.78;78.68;101148.88;109099;1269;21994;-79
2022/01/14 09:13:56;;;;;;;29.20;24.70;;;;;;;4.79;78.53;101141.11;109213;1270;23711;-79
2022/01/14 09:16:47;;;;;;;29.70;24.60;;;;;;;4.80;78.70;101138.98;109201;1270;23140;-80
2022/01/14 09:19:37;;;;;;;26.60;23.30;;;;;;;4.82;78.71;101136.89;109313;1270;22341;-79
2022/01/14 09:22:34;;;;;;;30.30;25.40;;;;;;;4.82;78.52;101125.34;109382;1265;21991;-79
2022/01/14 09:25:10;;;;;;;29.00;25.40;;;;;;;4.80;78.59;101116.06;109952;1260;21986;-79
2022/01/14 09:27:58;;;;;;;30.70;23.70;;;;;;;4.81;78.63;101115.69;109425;1267;22420;-79
2022/01/14 09:30:42;;;;;;;32.90;26.80;;;;;;;4.82;78.64;101104.56;109112;1267;23806;-79
2022/01/14 09:34:00;;;;;;;;;;;;;;;;;;;;;
2022/01/14 09:37:03;;;;;;;;;;;;;;;;;;;;;
2022/01/14 09:39:39;;;;;;;42.30;36.90;;;;;;;4.86;78.62;101103.94;109122;1273;22003;-81
2022/01/14 09:42:37;;;;;;;;;;;;;;;;;;;;;
2022/01/14 09:45:45;;;;;;;31.40;28.00;;;;;;;4.88;78.58;101091.58;109294;1270;21974;-81
2022/01/14 09:48:58;;;;;;;;;;;;;;;;;;;;;
2022/01/14 09:51:47;;;;;;;30.80;27.20;;;;;;;4.86;78.68;101099.75;108798;1276;22941;-80
2022/01/14 09:54:33;;;;;;;29.00;25.00;;;;;;;4.90;78.93;101086.14;108643;1279;23132;-81
2022/01/14 09:57:43;;;;;;;30.50;27.10;;;;;;;4.96;79.03;101082.09;108543;1279;22053;-81
2022/01/14 10:01:19;;;;;;;31.20;24.50;;;;;;;5.00;78.83;101070.79;108413;1280;22024;-81
2022/01/14 10:04:15;;;;;;;28.80;24.70;;;;;;;4.99;78.85;101083.27;108577;1277;23759;-80
2022/01/14 10:07:20;;;;;;;27.10;23.90;;;;;;;4.95;78.72;101082.15;108743;1273;22463;-80
2022/01/14 10:10:36;;;;;;;27.20;23.70;;;;;;;4.93;78.67;101079.84;108506;1279;23654;-80
2022/01/14 10:13:23;;;;;;;31.20;27.80;;;;;;;4.94;78.81;101072.48;108588;1273;23082;-81
2022/01/14 10:16:16;;;;;;;29.40;26.30;;;;;;;4.93;78.72;101059.29;108887;1274;22014;-81
2022/01/14 10:18:58;;;;;;;28.90;25.50;;;;;;;4.93;78.79;101046.32;108772;1273;23024;-80
2022/01/14 10:21:51;;;;;;;26.90;23.80;;;;;;;4.96;78.81;101046.33;108367;1279;22009;-80
2022/01/14 10:24:58;;;;;;;28.20;25.20;;;;;;;4.97;78.96;101034.86;108583;1277;22395;-80
2022/01/14 10:27:57;;;;;;;32.00;26.60;;;;;;;5.00;78.94;101024.02;109141;1269;21995;-81
2022/01/14 10:30:49;;;;;;;24.60;21.90;;;;;;;5.03;79.04;101016.80;109300;1268;22147;-81
2022/01/14 10:33:41;;;;;;;29.40;24.60;;;;;;;5.05;78.95;101021.40;109435;1270;22520;-81
2022/01/14 10:36:35;;;;;;;25.10;21.80;;;;;;;5.07;79.00;101018.94;109495;1267;21996;-80
2022/01/14 10:39:32;;;;;;;26.40;23.40;;;;;;;5.11;78.91;101013.77;109625;1257;23043;-81
2022/01/14 10:42:39;;;;;;;;;;;;;;;;;;;;;
2022/01/14 10:45:43;;;;;;;28.30;23.40;;;;;;;5.10;78.74;100998.46;109713;1263;23620;-82
2022/01/14 10:48:39;;;;;;;27.30;23.40;;;;;;;5.09;78.60;101002.39;109609;1261;21976;-80
2022/01/14 10:51:27;;;;;;;29.10;24.40;;;;;;;5.09;78.46;101009.58;110620;1257;21986;-80
2022/01/14 10:54:11;;;;;;;27.60;24.60;;;;;;;5.10;78.50;101023.60;110209;1257;22058;-83
2022/01/14 10:57:20;;;;;;;23.70;20.80;;;;;;;5.10;78.50;101024.35;110231;1257;23655;-82
2022/01/14 11:00:23;;;;;;;31.60;23.50;;;;;;;5.04;78.21;101016.95;110806;1257;23551;-81
2022/01/14 11:02:57;;;;;;;26.50;23.00;;;;;;;5.00;78.26;101025.79;110333;1254;21980;-81
2022/01/14 11:05:43;;;;;;;26.80;23.20;;;;;;;4.98;78.26;101027.51;110582;1254;22500;-81
2022/01/14 11:09:18;;;;;;;23.50;20.00;;;;;;;5.02;78.57;101022.66;110458;1254;22006;-81
2022/01/14 11:11:55;;;;;;;29.40;24.30;;;;;;;5.02;78.56;101018.11;110665;1254;22038;-81
2022/01/14 11:14:53;;;;;;;31.00;27.60;;;;;;;5.03;78.35;101001.47;110473;1257;21995;-81
2022/01/14 11:17:46;;;;;;;22.90;18.60;;;;;;;5.03;78.49;101004.27;110362;1257;21976;-81
2022/01/14 11:28:32;;;;;;;21.10;18.80;;;;;;;4.93;78.45;101004.30;109207;1267;22077;-80
2022/01/14 11:31:32;;;;;;;20.30;16.60;;;;;;;4.91;78.62;101003.73;109362;1267;22060;-81
2022/01/14 11:34:34;;;;;;;19.30;16.70;;;;;;;4.92;78.82;101005.56;109423;1267;22138;-80
2022/01/14 11:37:34;;;;;;;19.10;16.70;;;;;;;4.95;78.93;101004.48;109508;1267;24963;-80
2022/01/14 11:40:24;;;;;;;22.10;17.10;;;;;;;4.95;78.89;101009.55;109489;1266;23052;-79
2022/01/14 11:43:01;;;;;;;20.80;18.60;;;;;;;4.93;78.67;101012.66;109237;1267;23745;-79
2022/01/14 11:47:00;;;;;;;23.10;19.40;;;;;;;4.94;78.81;101006.45;109114;1267;23073;-79
2022/01/14 11:49:39;;;;;;;20.20;17.60;;;;;;;4.94;78.89;100997.80;108211;1279;22002;-80
2022/01/14 11:52:09;;;;;;;18.80;16.60;;;;;;;4.93;78.86;100996.45;108313;1279;22259;-79
2022/01/14 11:54:54;;;;;;;18.80;16.80;;;;;;;4.93;78.83;101001.86;108696;1276;22100;-80
2022/01/14 11:58:21;;;;;;;19.70;16.70;;;;;;;4.94;78.86;101005.94;108786;1275;22009;-83
2022/01/14 12:01:57;;;;;;;19.20;16.70;;;;;;;4.89;78.77;101005.49;109017;1273;22101;-85
2022/01/14 12:06:02;;;;;;;18.20;15.70;;;;;;;4.80;78.71;101007.36;109414;1267;22007;-82
2022/01/14 12:09:08;;;;;;;19.10;17.10;;;;;;;4.75;78.60;101003.54;109611;1270;22037;-83
2022/01/14 12:17:22;;;;;;;21.40;18.60;;;;;;;4.68;78.90;101013.98;109312;1273;23091;-82
2022/01/14 12:20:58;;;;;;;21.00;17.30;;;;;;;4.67;79.14;101003.96;109199;1273;22003;-83
2022/01/14 12:23:44;;;;;;;24.40;17.00;;;;;;;4.68;79.28;101007.73;109357;1264;22030;-83
2022/01/14 12:26:23;;;;;;;19.80;17.70;;;;;;;4.70;79.27;101002.71;109973;1265;22446;-83
2022/01/14 12:29:14;;;;;;;20.50;17.20;;;;;;;4.74;79.53;101003.46;109901;1264;22772;-84
2022/01/14 12:32:15;;;;;;;22.20;18.70;;;;;;;4.76;79.40;101006.98;109981;1263;21983;-84
2022/01/14 12:35:29;;;;;;;22.60;18.40;;;;;;;4.75;79.48;101000.23;109801;1267;22048;-81
2022/01/14 12:38:32;;;;;;;19.90;15.70;;;;;;;4.74;79.45;100994.73;109539;1267;23017;-85
2022/01/14 12:42:12;;;;;;;20.60;16.30;;;;;;;4.73;79.52;100995.98;109798;1267;23653;-84
2022/01/14 12:45:51;;;;;;;;;;;;;;;;;;;;;
2022/01/14 13:04:39;;;;;;;22.60;18.60;;;;;;;4.84;80.03;100977.02;110658;1263;21997;-88
2022/01/14 13:08:14;;;;;;;;;;;;;;;;;;;;;
2022/01/14 13:17:13;;;;;;;;;;;;;;;;;;;;;
2022/01/14 13:20:21;;;;;;;20.30;16.90;;;;;;;4.88;79.93;100977.11;111205;1261;21952;-83
2022/01/14 13:23:07;;;;;;;18.70;16.20;;;;;;;4.90;80.04;100975.22;110377;1270;21953;-84
2022/01/14 13:25:41;;;;;;;19.00;16.60;;;;;;;4.93;79.99;100976.70;110343;1270;21988;-83
2022/01/14 13:28:40;;;;;;;21.20;17.30;;;;;;;4.99;80.10;100978.88;110655;1269;21985;-83
2022/01/14 13:31:34;;;;;;;20.70;16.60;;;;;;;5.04;79.91;100983.71;110610;1269;22021;-82
2022/01/14 13:34:12;;;;;;;19.50;15.80;;;;;;;5.03;79.90;100974.35;110325;1270;21921;-82
2022/01/14 13:36:44;;;;;;;20.60;17.50;;;;;;;5.06;79.97;100974.34;110222;1271;21930;-82
2022/01/14 13:40:00;;;;;;;20.30;17.30;;;;;;;5.10;79.96;100977.56;110396;1273;21992;-82
2022/01/14 13:44:20;;;;;;;26.10;21.20;;;;;;;5.17;79.94;100975.38;109841;1280;21917;-81
2022/01/14 13:47:02;;;;;;;24.50;22.00;;;;;;;5.17;79.84;100973.13;109667;1286;21893;-80
2022/01/14 13:50:19;;;;;;;20.90;18.00;;;;;;;5.20;80.13;100975.18;109599;1286;21833;-84
2022/01/14 13:53:10;;;;;;;21.60;17.20;;;;;;;5.30;80.07;100966.39;109581;1286;21883;-83
2022/01/14 13:56:36;;;;;;;19.40;17.30;;;;;;;5.29;79.86;100972.95;109841;1282;21941;-82
2022/01/14 13:59:38;;;;;;;19.00;17.10;;;;;;;5.33;79.72;100992.16;109804;1282;21860;-82
2022/01/14 14:02:32;;;;;;;23.30;19.70;;;;;;;5.30;79.72;100989.58;109888;1282;21886;-85
2022/01/14 14:09:28;;;;;;;21.20;17.90;;;;;;;5.28;79.69;101001.61;110053;1276;22328;-84
2022/01/14 14:12:44;;;;;;;19.60;15.50;;;;;;;5.29;79.71;101005.91;109972;1279;21962;-82
2022/01/14 14:15:44;;;;;;;21.10;16.40;;;;;;;5.28;79.71;100998.64;110465;1270;22259;-84
2022/01/14 14:18:25;;;;;;;18.90;16.20;;;;;;;5.29;79.82;100988.10;110471;1267;22600;-81
2022/01/14 14:21:18;;;;;;;19.30;17.20;;;;;;;5.31;79.80;100984.43;110990;1263;21999;-84
2022/01/14 14:24:09;;;;;;;17.40;15.30;;;;;;;5.34;79.89;100995.20;110452;1272;21835;-81
2022/01/14 14:26:53;;;;;;;16.00;14.40;;;;;;;5.38;79.87;100991.30;110375;1273;21959;-84
2022/01/14 14:29:35;;;;;;;15.10;13.50;;;;;;;5.41;79.83;100997.14;110437;1273;22069;-80
2022/01/14 14:32:40;;;;;;;15.50;13.90;;;;;;;5.43;79.84;100994.90;110291;1273;21938;-80
2022/01/14 14:36:37;;;;;;;;;;;;;;;;;;;;;
2022/01/14 14:39:25;;;;;;;13.90;11.90;;;;;;;5.43;79.85;101016.04;109913;1281;22017;-83
2022/01/14 14:42:09;;;;;;;;;;;;;;;5.40;79.81;101010.81;110027;1275;22257;-82
2022/01/14 14:44:51;;;;;;;33.70;30.40;;;;;;;5.37;79.97;101013.52;110049;1276;21896;-84
2022/01/14 14:47:46;;;;;;;13.10;11.40;;;;;;;5.44;80.05;101021.00;110045;1276;21985;-85
2022/01/14 14:50:43;;;;;;;12.90;11.50;;;;;;;5.46;79.96;101022.25;109931;1283;21969;-83
2022/01/14 14:53:23;;;;;;;13.40;10.80;;;;;;;5.50;79.97;101024.75;109869;1283;21859;-85
2022/01/14 14:56:13;;;;;;;;;;;;;;;;;;;;;
2022/01/14 15:02:25;;;;;;;14.50;12.60;;;;;;;5.58;79.81;101036.21;109570;1285;21884;-83
2022/01/14 15:05:15;;;;;;;14.40;12.10;;;;;;;5.59;79.78;101038.00;109760;1285;21861;-81
2022/01/14 15:07:57;;;;;;;17.60;13.20;;;;;;;5.61;79.83;101037.30;109859;1282;21897;-86
2022/01/14 15:10:54;;;;;;;18.60;13.50;;;;;;;5.64;79.80;101031.32;109879;1282;21962;-81
2022/01/14 15:14:09;;;;;;;18.10;14.00;;;;;;;5.66;79.66;101021.06;109031;1291;21943;-83
2022/01/14 15:20:16;;;;;;;18.90;13.30;;;;;;;5.59;79.73;101017.20;109087;1291;21868;-80